createdAt,value
2022-11-21T00:01:17.962Z,5.53
2022-11-21T00:03:44.846Z,4.82
2022-11-21T00:06:11.556Z,4.63
2022-11-21T00:08:38.196Z,4.90
2022-11-21T00:11:04.852Z,5.43
2022-11-21T00:13:31.474Z,4.70
2022-11-21T00:16:04.133Z,5.65
2022-11-21T00:18:30.789Z,5.40
2022-11-21T00:20:57.433Z,11.30
2022-11-21T00:23:28.303Z,10.43
2022-11-21T00:25:58.196Z,10.38
2022-11-21T00:28:24.819Z,9.02
2022-11-21T00:30:51.450Z,6.70
2022-11-21T00:33:18.185Z,8.85
2022-11-21T00:35:44.818Z,8.77
2022-11-21T00:38:11.461Z,6.55
2022-11-21T00:40:38.155Z,5.72
2022-11-21T00:43:04.760Z,4.85
2022-11-21T00:45:31.324Z,4.53
2022-11-21T00:47:57.946Z,4.97
2022-11-21T00:50:24.592Z,5.13
2022-11-21T00:52:56.397Z,5.13
2022-11-21T00:55:23.788Z,4.40
2022-11-21T00:57:50.777Z,4.30
2022-11-21T01:00:18.363Z,5.40
2022-11-21T01:02:45.088Z,5.25
2022-11-21T01:05:11.713Z,5.45
2022-11-21T01:07:38.364Z,5.13
2022-11-21T01:10:05.699Z,5.53
2022-11-21T01:12:32.389Z,5.70
2022-11-21T01:14:59.030Z,5.28
2022-11-21T01:17:25.633Z,5.22
2022-11-21T01:19:52.262Z,6.00
2022-11-21T01:22:18.855Z,5.45
2022-11-21T01:24:46.601Z,5.47
2022-11-21T01:27:13.253Z,5.72
2022-11-21T01:29:39.893Z,5.32
2022-11-21T01:32:07.136Z,4.90
2022-11-21T01:34:33.993Z,4.65
2022-11-21T01:37:01.351Z,5.03
2022-11-21T01:39:29.087Z,4.25
2022-11-21T01:41:56.766Z,4.50
2022-11-21T01:44:26.565Z,4.40
2022-11-21T01:46:53.668Z,4.35
2022-11-21T01:49:25.061Z,4.47
2022-11-21T01:52:14.048Z,4.05
2022-11-21T01:54:51.581Z,4.35
2022-11-21T01:57:19.230Z,4.30
2022-11-21T01:59:57.019Z,4.57
2022-11-21T02:02:29.576Z,4.55
2022-11-21T02:04:57.722Z,3.92
2022-11-21T02:07:26.452Z,4.28
2022-11-21T02:09:57.511Z,3.85
2022-11-21T02:12:31.697Z,4.40
2022-11-21T02:14:59.440Z,3.92
2022-11-21T02:17:29.393Z,4.32
2022-11-21T02:20:00.771Z,3.65
2022-11-21T02:22:36.865Z,3.92
2022-11-21T02:25:10.188Z,4.40
2022-11-21T02:27:36.931Z,3.83
2022-11-21T02:30:05.823Z,4.00
2022-11-21T02:32:36.729Z,3.67
2022-11-21T02:35:04.221Z,2.97
2022-11-21T02:37:31.789Z,2.35
2022-11-21T02:40:01.195Z,2.03
2022-11-21T02:42:33.243Z,1.60
2022-11-21T02:45:12.196Z,1.80
2022-11-21T02:47:40.419Z,1.45
2022-11-21T02:50:19.261Z,0.95
2022-11-21T02:52:45.945Z,1.02
2022-11-21T02:55:13.584Z,0.80
2022-11-21T02:57:40.204Z,0.88
2022-11-21T03:00:08.582Z,0.88
2022-11-21T03:02:35.695Z,1.00
2022-11-21T03:05:03.165Z,1.33
2022-11-21T03:07:30.155Z,0.80
2022-11-21T03:09:57.301Z,0.68
2022-11-21T03:12:23.986Z,0.80
2022-11-21T03:14:50.664Z,0.90
2022-11-21T03:17:17.414Z,0.90
2022-11-21T03:19:44.210Z,0.70
2022-11-21T03:22:12.903Z,1.15
2022-11-21T03:24:39.559Z,1.10
2022-11-21T03:27:06.286Z,1.00
2022-11-21T03:29:33.072Z,0.80
2022-11-21T03:31:59.818Z,0.70
2022-11-21T03:34:26.659Z,1.25
2022-11-21T03:36:53.896Z,1.08
2022-11-21T03:39:20.685Z,1.00
2022-11-21T03:41:49.544Z,1.00
2022-11-21T03:44:16.397Z,1.20
2022-11-21T03:46:45.928Z,1.13
2022-11-21T03:49:14.310Z,1.23
2022-11-21T03:51:41.041Z,1.17
2022-11-21T03:54:08.144Z,1.00
2022-11-21T03:56:35.056Z,1.20
2022-11-21T03:59:02.376Z,1.08
2022-11-21T04:01:32.527Z,1.05
2022-11-21T04:04:01.963Z,1.30
2022-11-21T04:06:31.067Z,1.45
2022-11-21T04:08:57.875Z,1.02
2022-11-21T04:11:24.723Z,1.30
2022-11-21T04:13:52.317Z,1.20
2022-11-21T04:16:19.945Z,1.17
2022-11-21T04:20:40.265Z,1.33
2022-11-21T04:23:07.427Z,1.65
2022-11-21T04:25:34.348Z,1.67
2022-11-21T04:28:04.943Z,1.48
2022-11-21T04:30:34.920Z,1.50
2022-11-21T04:33:01.794Z,1.60
2022-11-21T04:35:28.563Z,1.40
2022-11-21T04:37:55.244Z,1.52
2022-11-21T04:40:22.179Z,1.50
2022-11-21T04:42:49.063Z,1.45
2022-11-21T04:45:16.849Z,1.35
2022-11-21T04:47:45.745Z,1.40
2022-11-21T04:50:15.314Z,1.60
2022-11-21T04:52:42.373Z,1.48
2022-11-21T04:55:10.251Z,1.63
2022-11-21T04:57:36.914Z,1.50
2022-11-21T05:00:04.419Z,2.20
2022-11-21T05:02:32.709Z,1.45
2022-11-21T05:04:59.405Z,1.83
2022-11-21T05:07:26.061Z,1.67
2022-11-21T05:09:52.712Z,1.90
2022-11-21T05:12:34.747Z,1.80
2022-11-21T05:15:01.534Z,1.67
2022-11-21T05:17:29.267Z,1.33
2022-11-21T05:19:56.008Z,1.80
2022-11-21T05:22:22.739Z,1.65
2022-11-21T05:24:49.355Z,1.50
2022-11-21T05:27:16.052Z,1.58
2022-11-21T05:29:42.722Z,1.80
2022-11-21T05:32:09.582Z,1.60
2022-11-21T05:34:36.198Z,1.60
2022-11-21T05:37:02.864Z,1.73
2022-11-21T05:39:29.636Z,4.13
2022-11-21T05:42:01.335Z,3.40
2022-11-21T05:44:29.865Z,4.70
2022-11-21T05:46:56.691Z,5.10
2022-11-21T05:49:23.328Z,5.72
2022-11-21T05:51:50.004Z,5.20
2022-11-21T05:54:16.791Z,4.00
2022-11-21T05:56:43.444Z,4.80
2022-11-21T05:59:11.383Z,3.00
2022-11-21T06:01:53.856Z,3.50
2022-11-21T06:04:20.622Z,3.22
2022-11-21T06:06:47.289Z,3.17
2022-11-21T06:09:13.992Z,3.00
2022-11-21T06:11:40.566Z,3.20
2022-11-21T06:14:07.321Z,4.13
2022-11-21T06:16:33.945Z,3.70
2022-11-21T06:19:00.575Z,3.65
2022-11-21T06:21:29.592Z,3.22
2022-11-21T06:23:57.983Z,3.42
2022-11-21T06:26:26.783Z,2.67
2022-11-21T06:28:54.943Z,2.88
2022-11-21T06:31:23.753Z,3.38
2022-11-21T06:33:53.382Z,3.25
2022-11-21T06:36:20.407Z,3.60
2022-11-21T06:38:47.508Z,2.65
2022-11-21T06:41:17.744Z,2.78
2022-11-21T06:43:45.365Z,3.20
2022-11-21T06:46:12.795Z,2.60
2022-11-21T06:48:40.454Z,2.80
2022-11-21T06:51:13.731Z,3.15
2022-11-21T06:53:40.344Z,3.00
2022-11-21T06:56:07.057Z,3.53
2022-11-21T06:58:34.002Z,4.13
2022-11-21T07:01:05.748Z,4.05
2022-11-21T07:03:32.733Z,4.35
2022-11-21T07:06:01.838Z,6.22
2022-11-21T07:08:30.038Z,7.38
2022-11-21T07:11:24.011Z,6.43
2022-11-21T07:13:48.171Z,6.72
2022-11-21T07:16:15.042Z,5.55
2022-11-21T07:18:42.407Z,6.18
2022-11-21T07:21:09.635Z,6.28
2022-11-21T07:23:36.320Z,5.90
2022-11-21T07:26:05.574Z,7.53
2022-11-21T07:28:33.110Z,8.23
2022-11-21T07:31:01.734Z,8.05
2022-11-21T07:33:28.540Z,7.60
2022-11-21T07:35:57.653Z,7.97
2022-11-21T07:38:25.707Z,8.15
2022-11-21T07:40:53.122Z,6.82
2022-11-21T07:43:19.823Z,6.57
2022-11-21T07:45:46.446Z,7.22
2022-11-21T07:48:13.144Z,6.93
2022-11-21T07:50:40.172Z,8.70
2022-11-21T07:53:10.165Z,10.27
2022-11-21T07:55:40.543Z,8.68
2022-11-21T07:58:10.256Z,5.28
2022-11-21T08:00:39.626Z,2.40
2022-11-21T08:03:07.242Z,1.02
2022-11-21T08:05:38.644Z,1.20
2022-11-21T08:08:06.930Z,1.25
2022-11-21T08:10:33.828Z,0.73
2022-11-21T08:13:00.434Z,1.27
2022-11-21T08:15:27.339Z,1.10
2022-11-21T08:17:53.992Z,0.80
2022-11-21T08:20:20.632Z,0.70
2022-11-21T08:22:47.313Z,1.08
2022-11-21T08:25:13.996Z,0.75
2022-11-21T08:27:42.264Z,0.90
2022-11-21T08:30:12.888Z,0.90
2022-11-21T08:32:39.620Z,0.90
2022-11-21T08:35:06.774Z,0.95
2022-11-21T08:37:33.412Z,0.90
2022-11-21T08:40:00.790Z,1.00
2022-11-21T08:42:27.917Z,1.17
2022-11-21T08:44:54.559Z,1.13
2022-11-21T08:47:21.348Z,1.10
2022-11-21T08:49:48.469Z,0.80
2022-11-21T08:52:17.411Z,0.98
2022-11-21T08:54:45.153Z,0.50
2022-11-21T08:57:12.457Z,0.40
2022-11-21T08:59:39.219Z,0.30
2022-11-21T09:02:06.079Z,0.35
2022-11-21T09:04:32.791Z,1.20
2022-11-21T09:06:59.768Z,0.25
2022-11-21T09:09:26.492Z,0.30
2022-11-21T09:11:53.143Z,0.50
2022-11-21T09:14:35.086Z,0.40
2022-11-21T09:17:17.122Z,0.50
2022-11-21T09:19:43.765Z,0.50
2022-11-21T09:22:10.434Z,0.70
2022-11-21T09:24:37.164Z,0.88
2022-11-21T09:27:03.846Z,0.80
2022-11-21T09:29:30.454Z,0.68
2022-11-21T09:31:57.109Z,0.90
2022-11-21T09:34:23.702Z,0.90
2022-11-21T09:36:50.325Z,0.82
2022-11-21T09:39:17.983Z,0.60
2022-11-21T09:42:00.965Z,0.45
2022-11-21T09:44:48.511Z,0.60
2022-11-21T09:47:21.394Z,0.90
2022-11-21T09:49:54.052Z,0.63
2022-11-21T09:52:24.934Z,1.20
2022-11-21T09:54:58.379Z,0.85
2022-11-21T09:57:30.692Z,1.10
2022-11-21T10:00:03.305Z,1.13
2022-11-21T10:02:29.980Z,0.60
2022-11-21T10:05:00.822Z,0.60
2022-11-21T10:07:32.377Z,0.63
2022-11-21T10:10:20.940Z,0.52
2022-11-21T10:13:10.041Z,0.50
2022-11-21T10:15:57.481Z,0.60
2022-11-21T10:18:42.426Z,0.70
2022-11-21T10:21:26.102Z,0.98
2022-11-21T10:24:08.931Z,0.57
2022-11-21T10:27:11.009Z,0.60
2022-11-21T10:29:46.483Z,0.60
2022-11-21T10:32:31.569Z,0.93
2022-11-21T10:35:02.869Z,1.13
2022-11-21T10:37:33.098Z,0.93
2022-11-21T10:40:16.176Z,1.48
2022-11-21T10:42:58.151Z,0.95
2022-11-21T10:45:25.376Z,1.00
2022-11-21T10:47:53.298Z,0.75
2022-11-21T10:50:43.961Z,1.00
2022-11-21T10:53:35.298Z,0.93
2022-11-21T10:56:14.574Z,1.60
2022-11-21T10:58:50.601Z,1.20
2022-11-21T11:01:27.748Z,1.30
2022-11-21T11:06:57.238Z,1.00
2022-11-21T11:09:32.744Z,0.90
2022-11-21T11:12:48.165Z,0.63
2022-11-21T11:15:18.704Z,0.70
2022-11-21T11:17:58.097Z,0.50
2022-11-21T11:20:41.735Z,0.70
2022-11-21T11:23:16.831Z,0.50
2022-11-21T11:25:48.290Z,0.75
2022-11-21T11:28:15.114Z,1.00
2022-11-21T11:30:43.536Z,0.80
2022-11-21T11:33:34.271Z,0.80
2022-11-21T11:36:13.773Z,1.05
2022-11-21T11:38:45.106Z,0.77
2022-11-21T11:41:25.454Z,0.88
2022-11-21T11:44:24.513Z,1.42
2022-11-21T11:47:20.722Z,1.00
2022-11-21T11:50:14.810Z,1.20
2022-11-21T11:52:48.337Z,0.90
2022-11-21T11:55:21.987Z,1.85
2022-11-21T11:57:52.997Z,1.85
2022-11-21T12:00:24.394Z,2.22
2022-11-21T12:03:13.075Z,1.80
2022-11-21T12:05:54.958Z,0.80
2022-11-21T12:08:41.511Z,1.15
2022-11-21T12:11:38.033Z,0.80
2022-11-21T12:14:34.922Z,0.80
2022-11-21T12:17:06.650Z,0.60
2022-11-21T12:19:35.266Z,0.77
2022-11-21T12:22:06.379Z,0.82
2022-11-21T12:24:39.838Z,0.60
2022-11-21T12:27:31.164Z,1.05
2022-11-21T12:30:09.052Z,0.90
2022-11-21T12:32:51.143Z,0.60
2022-11-21T12:35:48.474Z,1.17
2022-11-21T12:41:46.688Z,0.70
2022-11-21T12:44:19.745Z,0.60
2022-11-21T12:47:11.289Z,0.90
2022-11-21T12:49:59.740Z,0.70
2022-11-21T12:52:48.981Z,0.75
2022-11-21T12:55:35.095Z,0.82
2022-11-21T12:58:13.898Z,1.00
2022-11-21T13:01:06.158Z,0.60
2022-11-21T13:03:39.153Z,0.88
2022-11-21T13:06:13.180Z,1.17
2022-11-21T13:08:41.035Z,1.15
2022-11-21T13:11:42.742Z,2.25
2022-11-21T13:14:19.535Z,1.48
2022-11-21T13:16:55.252Z,1.60
2022-11-21T13:19:42.459Z,1.00
2022-11-21T13:22:48.906Z,1.17
2022-11-21T13:25:32.002Z,1.10
2022-11-21T13:28:13.915Z,0.70
2022-11-21T13:30:56.922Z,0.77
2022-11-21T13:33:39.921Z,0.77
2022-11-21T13:36:36.998Z,0.52
2022-11-21T13:39:03.794Z,0.57
2022-11-21T13:42:19.942Z,0.60
2022-11-21T13:44:47.498Z,0.57
2022-11-21T13:47:31.009Z,0.82
2022-11-21T13:50:23.698Z,0.60
2022-11-21T13:53:20.924Z,0.80
2022-11-21T13:55:58.048Z,0.75
2022-11-21T13:58:37.667Z,0.60
2022-11-21T14:01:34.846Z,0.80
2022-11-21T14:04:17.691Z,0.63
2022-11-21T14:06:44.930Z,0.57
2022-11-21T14:09:27.512Z,0.90
2022-11-21T14:12:03.886Z,0.52
2022-11-21T14:14:37.165Z,0.60
2022-11-21T14:17:27.822Z,0.63
2022-11-21T14:19:56.697Z,0.73
2022-11-21T14:22:34.751Z,0.60
2022-11-21T14:25:07.867Z,0.70
2022-11-21T14:27:44.924Z,0.85
2022-11-21T14:30:42.455Z,0.98
2022-11-21T14:33:26.202Z,0.80
2022-11-21T14:36:06.116Z,0.82
2022-11-21T14:38:40.174Z,1.25
2022-11-21T14:41:28.829Z,1.40
2022-11-21T14:44:17.095Z,1.15
2022-11-21T14:46:47.273Z,1.50
2022-11-21T14:49:16.284Z,1.17
2022-11-21T14:51:50.170Z,1.02
2022-11-21T14:54:23.629Z,1.48
2022-11-21T14:56:59.358Z,1.13
2022-11-21T14:59:31.667Z,1.55
2022-11-21T15:02:03.262Z,1.05
2022-11-21T15:04:33.681Z,1.08
2022-11-21T15:07:00.896Z,1.60
2022-11-21T15:10:26.058Z,2.40
2022-11-21T15:12:24.225Z,4.50
2022-11-21T15:14:54.588Z,4.32
2022-11-21T15:17:24.353Z,4.38
2022-11-21T15:20:16.748Z,2.97
2022-11-21T15:22:43.619Z,2.70
2022-11-21T15:25:20.558Z,2.13
2022-11-21T15:27:49.122Z,2.35
2022-11-21T15:30:25.695Z,1.90
2022-11-21T15:33:09.013Z,1.50
2022-11-21T15:35:40.544Z,2.47
2022-11-21T15:38:32.680Z,2.63
2022-11-21T15:41:14.583Z,1.95
2022-11-21T15:43:48.215Z,2.25
2022-11-21T15:46:42.493Z,1.88
2022-11-21T15:49:32.068Z,2.78
2022-11-21T15:52:13.591Z,4.28
2022-11-21T15:54:40.218Z,5.28
2022-11-21T15:57:08.217Z,4.15
2022-11-21T15:59:34.941Z,4.15
2022-11-21T16:02:01.557Z,4.47
2022-11-21T16:04:28.160Z,4.78
2022-11-21T16:06:55.301Z,4.85
2022-11-21T16:09:22.060Z,5.30
2022-11-21T16:11:48.889Z,5.18
2022-11-21T16:14:17.090Z,5.07
2022-11-21T16:16:44.481Z,4.53
2022-11-21T16:19:12.587Z,4.03
2022-11-21T16:21:39.699Z,4.60
2022-11-21T16:24:06.723Z,5.45
2022-11-21T16:26:33.578Z,6.00
2022-11-21T16:29:01.650Z,5.85
2022-11-21T16:31:30.677Z,5.88
2022-11-21T16:34:03.540Z,5.53
2022-11-21T16:36:31.604Z,4.25
2022-11-21T16:39:05.129Z,4.47
2022-11-21T16:44:02.304Z,4.65
2022-11-21T16:46:29.239Z,5.53
2022-11-21T16:49:01.618Z,7.25
2022-11-21T16:51:29.500Z,5.50
2022-11-21T16:53:57.369Z,4.97
2022-11-21T16:56:24.813Z,4.47
2022-11-21T16:58:51.444Z,4.40
2022-11-21T17:01:21.442Z,4.85
2022-11-21T17:03:49.666Z,4.75
2022-11-21T17:06:20.329Z,4.75
2022-11-21T17:08:47.318Z,5.20
2022-11-21T17:11:15.530Z,6.03
2022-11-21T17:13:43.123Z,13.00
2022-11-21T17:16:11.442Z,16.77
2022-11-21T17:18:38.627Z,9.38
2022-11-21T17:21:09.098Z,6.90
2022-11-21T17:23:37.326Z,8.88
2022-11-21T17:26:06.211Z,7.93
2022-11-21T17:28:33.506Z,5.95
2022-11-21T17:31:00.573Z,5.70
2022-11-21T17:33:27.279Z,5.95
2022-11-21T17:35:53.906Z,7.13
2022-11-21T17:38:20.590Z,6.65
2022-11-21T17:40:47.306Z,8.98
2022-11-21T17:43:13.967Z,8.57
2022-11-21T17:45:40.683Z,9.40
2022-11-21T17:48:07.288Z,7.15
2022-11-21T17:50:33.938Z,6.07
2022-11-21T17:53:00.560Z,6.80
2022-11-21T17:55:27.224Z,8.38
2022-11-21T17:57:53.848Z,8.00
2022-11-21T18:00:20.534Z,7.95
2022-11-21T18:02:47.376Z,7.70
2022-11-21T18:05:14.153Z,7.55
2022-11-21T18:07:40.900Z,7.10
2022-11-21T18:10:35.286Z,7.97
2022-11-21T18:15:21.089Z,7.78
2022-11-21T18:17:47.747Z,9.73
2022-11-21T18:20:14.619Z,8.98
2022-11-21T18:22:41.272Z,8.93
2022-11-21T18:25:08.191Z,9.02
2022-11-21T18:27:34.803Z,8.15
2022-11-21T18:30:01.473Z,9.20
2022-11-21T18:32:29.306Z,8.20
2022-11-21T18:34:55.990Z,8.48
2022-11-21T18:37:22.670Z,8.15
2022-11-21T18:39:49.286Z,7.78
2022-11-21T18:42:16.020Z,8.40
2022-11-21T18:44:43.083Z,8.18
2022-11-21T18:47:20.162Z,8.77
2022-11-21T18:49:48.015Z,8.85
2022-11-21T18:52:14.874Z,9.25
2022-11-21T18:54:41.517Z,8.38
2022-11-21T18:57:08.189Z,8.48
2022-11-21T18:59:34.781Z,8.50
2022-11-21T19:02:01.571Z,7.70
2022-11-21T19:04:28.874Z,7.55
2022-11-21T19:06:55.528Z,8.48
2022-11-21T19:09:22.241Z,7.85
2022-11-21T19:11:49.066Z,7.65
2022-11-21T19:14:15.710Z,7.82
2022-11-21T19:16:42.298Z,7.53
2022-11-21T19:21:57.354Z,6.90
2022-11-21T19:24:23.977Z,7.28
2022-11-21T19:26:50.748Z,7.95
2022-11-21T19:29:18.125Z,7.68
2022-11-21T19:31:46.085Z,6.93
2022-11-21T19:34:14.866Z,7.85
2022-11-21T19:36:42.293Z,7.53
2022-11-21T19:39:09.264Z,8.00
2022-11-21T19:41:36.446Z,7.05
2022-11-21T19:44:03.803Z,8.68
2022-11-21T19:46:33.388Z,9.00
2022-11-21T19:49:00.736Z,8.63
2022-11-21T19:51:30.873Z,8.90
2022-11-21T19:53:58.069Z,11.18
2022-11-21T19:56:26.272Z,9.98
2022-11-21T19:58:53.715Z,9.35
2022-11-21T20:01:23.176Z,8.40
2022-11-21T20:03:52.310Z,8.63
2022-11-21T20:06:22.715Z,9.40
2022-11-21T20:08:53.826Z,9.40
2022-11-21T20:11:21.594Z,9.10
2022-11-21T20:13:49.507Z,9.27
2022-11-21T20:16:23.352Z,9.45
2022-11-21T20:18:51.170Z,9.50
2022-11-21T20:21:18.947Z,8.75
2022-11-21T20:23:46.295Z,9.25
2022-11-21T20:26:14.101Z,9.65
2022-11-21T20:28:40.867Z,9.90
2022-11-21T20:31:13.078Z,10.38
2022-11-21T20:33:42.494Z,9.73
2022-11-21T20:36:16.221Z,10.60
2022-11-21T20:38:44.128Z,10.68
2022-11-21T20:41:10.843Z,10.05
2022-11-21T20:44:14.800Z,9.52
2022-11-21T20:46:24.453Z,10.95
2022-11-21T20:48:51.337Z,10.80
2022-11-21T20:52:43.301Z,11.82
2022-11-21T20:54:04.903Z,11.60
2022-11-21T20:56:34.646Z,10.85
2022-11-21T20:59:02.062Z,12.18
2022-11-21T21:01:28.971Z,12.27
2022-11-21T21:03:55.812Z,11.48
2022-11-21T21:06:24.276Z,13.45
2022-11-21T21:08:51.932Z,12.38
2022-11-21T21:11:49.748Z,14.50
2022-11-21T21:14:08.039Z,11.55
2022-11-21T21:16:34.687Z,10.15
2022-11-21T21:19:01.319Z,11.18
2022-11-21T21:21:30.806Z,11.05
2022-11-21T21:23:59.021Z,11.70
2022-11-21T21:26:28.964Z,11.27
2022-11-21T21:28:57.264Z,10.68
2022-11-21T21:31:24.222Z,10.77
2022-11-21T21:33:50.885Z,10.00
2022-11-21T21:36:20.372Z,9.75
2022-11-21T21:38:51.528Z,20.08
2022-11-21T21:41:18.834Z,19.50
2022-11-21T21:43:45.552Z,13.82
2022-11-21T21:46:14.266Z,42.47
2022-11-21T21:48:43.095Z,18.42
2022-11-21T21:51:15.416Z,12.98
2022-11-21T21:53:43.270Z,11.75
2022-11-21T21:56:10.823Z,9.18
2022-11-21T21:58:40.326Z,9.90
2022-11-21T22:01:10.867Z,12.07
2022-11-21T22:03:38.409Z,14.07
2022-11-21T22:06:07.573Z,14.95
2022-11-21T22:08:35.823Z,13.05
2022-11-21T22:11:20.007Z,11.65
2022-11-21T22:13:54.989Z,12.85
2022-11-21T22:16:21.746Z,14.50
2022-11-21T22:18:48.390Z,14.05
2022-11-21T22:21:16.023Z,13.40
2022-11-21T22:24:02.390Z,12.13
2022-11-21T22:26:30.064Z,13.35
2022-11-21T22:28:57.466Z,15.50
2022-11-21T22:31:24.144Z,14.55
2022-11-21T22:33:50.756Z,14.73
2022-11-21T22:36:18.610Z,15.60
2022-11-21T22:38:46.139Z,13.30
2022-11-21T22:41:15.255Z,13.32
2022-11-21T22:43:42.069Z,12.20
2022-11-21T22:46:12.513Z,11.38
2022-11-21T22:48:39.912Z,11.50
2022-11-21T22:51:07.689Z,11.00
2022-11-21T22:53:39.916Z,11.18
2022-11-21T22:56:10.330Z,11.20
2022-11-21T22:58:39.951Z,11.15
2022-11-21T23:01:06.596Z,12.20
2022-11-21T23:03:34.602Z,11.35
2022-11-21T23:06:02.525Z,11.20
2022-11-21T23:08:29.871Z,11.25
2022-11-21T23:11:05.481Z,10.40
2022-11-21T23:13:33.006Z,8.65
2022-11-21T23:15:59.730Z,9.60
2022-11-21T23:18:26.757Z,7.82
2022-11-21T23:20:53.480Z,7.85
2022-11-21T23:23:20.366Z,7.60
2022-11-21T23:25:48.105Z,6.70
2022-11-21T23:28:14.698Z,6.93
2022-11-21T23:30:43.313Z,7.00
2022-11-21T23:33:10.107Z,6.32
2022-11-21T23:35:37.533Z,6.45
2022-11-21T23:38:04.457Z,6.78
2022-11-21T23:40:31.583Z,5.80
2022-11-21T23:42:58.219Z,5.57
2022-11-21T23:45:25.027Z,5.18
2022-11-21T23:47:51.614Z,5.55
2022-11-21T23:50:19.600Z,5.63
2022-11-21T23:52:47.390Z,5.85
2022-11-21T23:55:14.608Z,4.85
2022-11-21T23:57:41.234Z,5.60
